Terminal Aerodrome Forecast
Issued by NWS

Home | Current Version | Previous Version | Text Only | Print | Product List | Glossary On
Versions: 1 2 3 4 5 6 7 8 9 10 11 12 13 14 15 16 17 18 19 20 21
000
FTUS45 KTFX 180500
TAFHVR
TAF
KHVR 180520Z 1806/1906 11010KT P6SM VCSH SCT040 OVC070
      TEMPO 1808/1811 -SHRA BKN035
     FM181100 21010KT P6SM VCSH SCT035 OVC060
      TEMPO 1811/1814 -SHRA BKN030
     FM181500 24017G28KT P6SM SCT060 BKN090
     FM181900 26025G40KT P6SM SCT090
     FM190100 28018G30KT P6SM SCT050 BKN080=

USA.gov is the U.S. government's official web portal to all federal, state and local government web resources and services.